Spirit Of Vi — CFL2070 — position and weather

sailwx.info

Track history (hours):
 
Tides and Currents Weather Stations Pressure Air Temp Water Temp Dewpoint Dewpoint Depression Visibility Wind Speed Wind Dir Waves Ship Positions

Spirit Of Vi

Last reported at 2018-Jan-24 01:30 UTC. Time now 2018-Jan-24 01:52 UTC.
Position N 48°55' W 123°16'.

Length 168 m; draft 5 m.

Type: Ship. MMSI: 316001269.

Date/timePositionNaut miles runAvg speedWind from/ knotsBaromVisibWave heightAir tempDewpointWater temp
2018-Jan-24 01:30N 48°55' W 123°16'714.8
2018-Jan-24 01:00N 49°00' W 123°08'0 0.0
2018-Jan-24 00:30N 49°00' W 123°08'714.9
2018-Jan-24 00:00N 48°55' W 123°15'815.3
2018-Jan-23 23:30N 48°48' W 123°21'713.6
2018-Jan-23 23:00N 48°41' W 123°25'0 0.8
2018-Jan-23 22:24N 48°42' W 123°24'616.6
2018-Jan-23 22:00N 48°48' W 123°21'816.0
2018-Jan-23 21:30N 48°55' W 123°16'714.9
2018-Jan-23 21:00N 49°00' W 123°08'0 0.0
2018-Jan-23 20:30N 49°00' W 123°08'816.2
2018-Jan-23 20:00N 48°54' W 123°16'713.1
2018-Jan-23 19:31N 48°49' W 123°21'811.1
2018-Jan-23 18:49N 48°41' W 123°25'0 0.4
2018-Jan-23 18:28N 48°41' W 123°25'715.5
2018-Jan-23 18:00N 48°48' W 123°21'714.8
2018-Jan-23 17:31N 48°55' W 123°16'815.7
2018-Jan-23 17:01N 49°00' W 123°08'0 0.0
2018-Jan-23 16:31N 49°00' W 123°08'815.2
2018-Jan-23 16:00N 48°54' W 123°16'715.0
2018-Jan-23 15:30N 48°48' W 123°21'  
2018-Jan-19 22:43N 48°42' W 123°22'419.0
2018-Jan-19 22:30N 48°46' W 123°21'815.6
2018-Jan-19 22:01N 48°53' W 123°18'918.2
2018-Jan-19 21:30N 49°00' W 123°09'1 2.7
2018-Jan-19 21:00N 48°59' W 123°08'0 0.4
2018-Jan-19 20:30N 48°59' W 123°08'510.2
2018-Jan-19 20:00N 49°01' W 123°15'510.8
2018-Jan-19 19:30N 49°06' W 123°18'816.5
2018-Jan-19 19:00N 49°07' W 123°05'0 0.6
2018-Jan-19 18:30N 49°07' W 123°05'0 0.0
2018-Jan-19 18:00N 49°07' W 123°05'0 0.0
2018-Jan-19 17:30N 49°07' W 123°05'0 0.0
2018-Jan-19 17:00N 49°07' W 123°05'0 0.0
2018-Jan-19 16:30N 49°07' W 123°05'0 0.0
2018-Jan-19 16:00N 49°07' W 123°05'0 0.0
2018-Jan-19 15:29N 49°07' W 123°05'0 0.0
2018-Jan-19 14:59N 49°07' W 123°05'0 0.0
2018-Jan-19 14:23N 49°07' W 123°05'0 0.0
2018-Jan-19 13:53N 49°07' W 123°05'0 0.0
2018-Jan-19 13:29N 49°07' W 123°05'0 0.0
2018-Jan-19 12:50N 49°07' W 123°05'0 0.0
2018-Jan-19 12:29N 49°07' W 123°05'0 0.0
2018-Jan-19 11:59N 49°07' W 123°05'0 0.0
2018-Jan-19 11:29N 49°07' W 123°05'0 0.0
2018-Jan-19 10:59N 49°07' W 123°05'0 0.0
2018-Jan-19 10:26N 49°07' W 123°05'0 0.0
2018-Jan-19 09:44N 49°07' W 123°05'0 0.0
2018-Jan-19 09:26N 49°07' W 123°05'0 0.0
2018-Jan-19 08:56N 49°07' W 123°05'0 0.0
2018-Jan-19 08:20N 49°07' W 123°05'0 0.0
2018-Jan-19 07:50N 49°07' W 123°05'0 0.0
2018-Jan-19 07:26N 49°07' W 123°05'0 0.0
2018-Jan-19 06:56N 49°07' W 123°05'0 0.0
2018-Jan-19 06:26N 49°07' W 123°05'0 0.0
2018-Jan-19 05:38N 49°07' W 123°05'0 0.0
2018-Jan-19 05:26N 49°07' W 123°05'0 0.0
2018-Jan-19 04:56N 49°07' W 123°05'0 0.0
2018-Jan-19 04:26N 49°07' W 123°05'0 0.0
2018-Jan-19 03:56N 49°07' W 123°05'0 0.0
2018-Jan-19 03:26N 49°07' W 123°05'0 0.0
2018-Jan-19 02:56N 49°07' W 123°05'0 0.0
2018-Jan-19 02:29N 49°07' W 123°05'0 0.0
2018-Jan-19 01:59N 49°07' W 123°05'0 0.0
2018-Jan-19 01:29N 49°07' W 123°05'0 0.0
2018-Jan-19 00:50N 49°07' W 123°05'0 0.0
2018-Jan-19 00:26N 49°07' W 123°05'0 0.0
2018-Jan-18 23:44N 49°07' W 123°05'0 0.0
2018-Jan-18 23:26N 49°07' W 123°05'0 0.0
2018-Jan-18 22:56N 49°07' W 123°05'0 0.0
2018-Jan-18 22:26N 49°07' W 123°05'0 0.0
2018-Jan-18 21:59N 49°07' W 123°05'0 0.0
2018-Jan-18 21:26N 49°07' W 123°05'0 0.0
2018-Jan-18 20:59N 49°07' W 123°05'0 0.0
2018-Jan-18 20:23N 49°07' W 123°05'0 0.0
2018-Jan-18 19:59N 49°07' W 123°05'0 0.0
2018-Jan-18 19:26N 49°07' W 123°05'0 0.0
2018-Jan-18 18:59N 49°07' W 123°05'0 0.0
2018-Jan-18 18:30N 49°07' W 123°05'0 0.0
2018-Jan-18 18:00N 49°07' W 123°05'0 0.0
2018-Jan-18 17:29N 49°07' W 123°05'0 0.0
2018-Jan-18 16:59N 49°07' W 123°05'0 0.0
2018-Jan-18 16:15N 49°07' W 123°05'0 0.0
2018-Jan-18 15:54N 49°07' W 123°05'0 0.0
2018-Jan-18 15:27N 49°07' W 123°05'0 0.0
2018-Jan-18 15:00N 49°07' W 123°05'0 0.0
2018-Jan-18 14:30N 49°07' W 123°05'0 0.0
2018-Jan-18 13:48N 49°07' W 123°05'0 0.0
2018-Jan-18 13:30N 49°07' W 123°05'0 0.0
2018-Jan-18 13:00N 49°07' W 123°05'0 0.0
2018-Jan-18 12:21N 49°07' W 123°05'0 0.0
2018-Jan-18 12:00N 49°07' W 123°05'0 0.0
2018-Jan-18 11:30N 49°07' W 123°05'0 0.0
2018-Jan-18 11:00N 49°07' W 123°05'0 0.0
2018-Jan-18 10:30N 49°07' W 123°05'0 0.0
2018-Jan-18 10:00N 49°07' W 123°05'0 0.0
2018-Jan-18 09:24N 49°07' W 123°05'0 0.0
2018-Jan-18 09:00N 49°07' W 123°05'0 0.0
2018-Jan-18 08:30N 49°07' W 123°05'0 0.0
2018-Jan-18 08:00N 49°07' W 123°05'0 0.0
2018-Jan-18 07:24N 49°07' W 123°05'0 0.0
2018-Jan-18 07:00N 49°07' W 123°05'0 0.0
2018-Jan-18 06:30N 49°07' W 123°05'0 0.0
2018-Jan-18 06:00N 49°07' W 123°05'0 0.0
2018-Jan-18 05:30N 49°07' W 123°05'0 0.0
2018-Jan-18 04:54N 49°07' W 123°05'0 0.0
2018-Jan-18 04:24N 49°07' W 123°05'0 0.0
2018-Jan-18 04:00N 49°07' W 123°05'0 0.0
2018-Jan-18 03:24N 49°07' W 123°05'0 0.0
2018-Jan-18 02:54N 49°07' W 123°05'0 0.0
2018-Jan-18 02:30N 49°07' W 123°05'0 0.0
2018-Jan-18 02:00N 49°07' W 123°05'0 0.0
2018-Jan-18 01:24N 49°07' W 123°05'0 0.0
2018-Jan-18 00:57N 49°07' W 123°05'0 0.0
2018-Jan-18 00:00N 49°07' W 123°05'0 0.0
2018-Jan-17 23:51N 49°07' W 123°05'  
Track history (hours):
 
Tides and Currents Weather Stations Pressure Air Temp Water Temp Dewpoint Dewpoint Depression Visibility Wind Speed Wind Dir Waves Ship Positions

Spirit Of Vi

Last reported at 2018-Jan-24 01:30 UTC. Time now 2018-Jan-24 01:52 UTC.
Position N 48°55' W 123°16'.

Length 168 m; draft 5 m.

Type: Ship. MMSI: 316001269.

Date/timePositionNaut miles runAvg speedWind from/ knotsBaromVisibWave heightAir tempDewpointWater temp
2018-Jan-24 01:30N 48°55' W 123°16'714.8
2018-Jan-24 01:00N 49°00' W 123°08'0 0.0
2018-Jan-24 00:30N 49°00' W 123°08'714.9
2018-Jan-24 00:00N 48°55' W 123°15'815.3
2018-Jan-23 23:30N 48°48' W 123°21'713.6
2018-Jan-23 23:00N 48°41' W 123°25'0 0.8
2018-Jan-23 22:24N 48°42' W 123°24'616.6
2018-Jan-23 22:00N 48°48' W 123°21'816.0
2018-Jan-23 21:30N 48°55' W 123°16'714.9
2018-Jan-23 21:00N 49°00' W 123°08'0 0.0
2018-Jan-23 20:30N 49°00' W 123°08'816.2
2018-Jan-23 20:00N 48°54' W 123°16'713.1
2018-Jan-23 19:31N 48°49' W 123°21'811.1
2018-Jan-23 18:49N 48°41' W 123°25'0 0.4
2018-Jan-23 18:28N 48°41' W 123°25'715.5
2018-Jan-23 18:00N 48°48' W 123°21'714.8
2018-Jan-23 17:31N 48°55' W 123°16'815.7
2018-Jan-23 17:01N 49°00' W 123°08'0 0.0
2018-Jan-23 16:31N 49°00' W 123°08'815.2
2018-Jan-23 16:00N 48°54' W 123°16'715.0
2018-Jan-23 15:30N 48°48' W 123°21'  
2018-Jan-19 22:43N 48°42' W 123°22'419.0
2018-Jan-19 22:30N 48°46' W 123°21'815.6
2018-Jan-19 22:01N 48°53' W 123°18'918.2
2018-Jan-19 21:30N 49°00' W 123°09'1 2.7
2018-Jan-19 21:00N 48°59' W 123°08'0 0.4
2018-Jan-19 20:30N 48°59' W 123°08'510.2
2018-Jan-19 20:00N 49°01' W 123°15'510.8
2018-Jan-19 19:30N 49°06' W 123°18'816.5
2018-Jan-19 19:00N 49°07' W 123°05'0 0.6
2018-Jan-19 18:30N 49°07' W 123°05'0 0.0
2018-Jan-19 18:00N 49°07' W 123°05'0 0.0
2018-Jan-19 17:30N 49°07' W 123°05'0 0.0
2018-Jan-19 17:00N 49°07' W 123°05'0 0.0
2018-Jan-19 16:30N 49°07' W 123°05'0 0.0
2018-Jan-19 16:00N 49°07' W 123°05'0 0.0
2018-Jan-19 15:29N 49°07' W 123°05'0 0.0
2018-Jan-19 14:59N 49°07' W 123°05'0 0.0
2018-Jan-19 14:23N 49°07' W 123°05'0 0.0
2018-Jan-19 13:53N 49°07' W 123°05'0 0.0
2018-Jan-19 13:29N 49°07' W 123°05'0 0.0
2018-Jan-19 12:50N 49°07' W 123°05'0 0.0
2018-Jan-19 12:29N 49°07' W 123°05'0 0.0
2018-Jan-19 11:59N 49°07' W 123°05'0 0.0
2018-Jan-19 11:29N 49°07' W 123°05'0 0.0
2018-Jan-19 10:59N 49°07' W 123°05'0 0.0
2018-Jan-19 10:26N 49°07' W 123°05'0 0.0
2018-Jan-19 09:44N 49°07' W 123°05'0 0.0
2018-Jan-19 09:26N 49°07' W 123°05'0 0.0
2018-Jan-19 08:56N 49°07' W 123°05'0 0.0
2018-Jan-19 08:20N 49°07' W 123°05'0 0.0
2018-Jan-19 07:50N 49°07' W 123°05'0 0.0
2018-Jan-19 07:26N 49°07' W 123°05'0 0.0
2018-Jan-19 06:56N 49°07' W 123°05'0 0.0
2018-Jan-19 06:26N 49°07' W 123°05'0 0.0
2018-Jan-19 05:38N 49°07' W 123°05'0 0.0
2018-Jan-19 05:26N 49°07' W 123°05'0 0.0
2018-Jan-19 04:56N 49°07' W 123°05'0 0.0
2018-Jan-19 04:26N 49°07' W 123°05'0 0.0
2018-Jan-19 03:56N 49°07' W 123°05'0 0.0
2018-Jan-19 03:26N 49°07' W 123°05'0 0.0
2018-Jan-19 02:56N 49°07' W 123°05'0 0.0
2018-Jan-19 02:29N 49°07' W 123°05'0 0.0
2018-Jan-19 01:59N 49°07' W 123°05'0 0.0
2018-Jan-19 01:29N 49°07' W 123°05'0 0.0
2018-Jan-19 00:50N 49°07' W 123°05'0 0.0
2018-Jan-19 00:26N 49°07' W 123°05'0 0.0
2018-Jan-18 23:44N 49°07' W 123°05'0 0.0
2018-Jan-18 23:26N 49°07' W 123°05'0 0.0
2018-Jan-18 22:56N 49°07' W 123°05'0 0.0
2018-Jan-18 22:26N 49°07' W 123°05'0 0.0
2018-Jan-18 21:59N 49°07' W 123°05'0 0.0
2018-Jan-18 21:26N 49°07' W 123°05'0 0.0
2018-Jan-18 20:59N 49°07' W 123°05'0 0.0
2018-Jan-18 20:23N 49°07' W 123°05'0 0.0
2018-Jan-18 19:59N 49°07' W 123°05'0 0.0
2018-Jan-18 19:26N 49°07' W 123°05'0 0.0
2018-Jan-18 18:59N 49°07' W 123°05'0 0.0
2018-Jan-18 18:30N 49°07' W 123°05'0 0.0
2018-Jan-18 18:00N 49°07' W 123°05'0 0.0
2018-Jan-18 17:29N 49°07' W 123°05'0 0.0
2018-Jan-18 16:59N 49°07' W 123°05'0 0.0
2018-Jan-18 16:15N 49°07' W 123°05'0 0.0
2018-Jan-18 15:54N 49°07' W 123°05'0 0.0
2018-Jan-18 15:27N 49°07' W 123°05'0 0.0
2018-Jan-18 15:00N 49°07' W 123°05'0 0.0
2018-Jan-18 14:30N 49°07' W 123°05'0 0.0
2018-Jan-18 13:48N 49°07' W 123°05'0 0.0
2018-Jan-18 13:30N 49°07' W 123°05'0 0.0
2018-Jan-18 13:00N 49°07' W 123°05'0 0.0
2018-Jan-18 12:21N 49°07' W 123°05'0 0.0
2018-Jan-18 12:00N 49°07' W 123°05'0 0.0
2018-Jan-18 11:30N 49°07' W 123°05'0 0.0
2018-Jan-18 11:00N 49°07' W 123°05'0 0.0
2018-Jan-18 10:30N 49°07' W 123°05'0 0.0
2018-Jan-18 10:00N 49°07' W 123°05'0 0.0
2018-Jan-18 09:24N 49°07' W 123°05'0 0.0
2018-Jan-18 09:00N 49°07' W 123°05'0 0.0
2018-Jan-18 08:30N 49°07' W 123°05'0 0.0
2018-Jan-18 08:00N 49°07' W 123°05'0 0.0
2018-Jan-18 07:24N 49°07' W 123°05'0 0.0
2018-Jan-18 07:00N 49°07' W 123°05'0 0.0
2018-Jan-18 06:30N 49°07' W 123°05'0 0.0
2018-Jan-18 06:00N 49°07' W 123°05'0 0.0
2018-Jan-18 05:30N 49°07' W 123°05'0 0.0
2018-Jan-18 04:54N 49°07' W 123°05'0 0.0
2018-Jan-18 04:24N 49°07' W 123°05'0 0.0
2018-Jan-18 04:00N 49°07' W 123°05'0 0.0
2018-Jan-18 03:24N 49°07' W 123°05'0 0.0
2018-Jan-18 02:54N 49°07' W 123°05'0 0.0
2018-Jan-18 02:30N 49°07' W 123°05'0 0.0
2018-Jan-18 02:00N 49°07' W 123°05'0 0.0
2018-Jan-18 01:24N 49°07' W 123°05'0 0.0
2018-Jan-18 00:57N 49°07' W 123°05'0 0.0
2018-Jan-18 00:00N 49°07' W 123°05'0 0.0
2018-Jan-17 23:51N 49°07' W 123°05'  

Dump ship's entire track history